sensor_id;sensor_type;location;lat;lon;timestamp;P1;durP1;ratioP1;P2;durP2;ratioP2
13189;SDS011;6660;48.828;9.120;2022-07-17T00:00:54;3.17;;;2.70;;
13189;SDS011;6660;48.828;9.120;2022-07-17T00:03:28;2.92;;;2.60;;
13189;SDS011;6660;48.828;9.120;2022-07-17T00:06:12;2.50;;;2.30;;
13189;SDS011;6660;48.828;9.120;2022-07-17T00:09:06;2.80;;;2.60;;
13189;SDS011;6660;48.828;9.120;2022-07-17T00:11:55;2.72;;;2.53;;
13189;SDS011;6660;48.828;9.120;2022-07-17T00:14:42;2.55;;;2.28;;
13189;SDS011;6660;48.828;9.120;2022-07-17T00:17:14;3.20;;;2.90;;
13189;SDS011;6660;48.828;9.120;2022-07-17T00:19:41;2.67;;;2.40;;
13189;SDS011;6660;48.828;9.120;2022-07-17T00:25:00;2.50;;;2.30;;
13189;SDS011;6660;48.828;9.120;2022-07-17T00:27:32;2.75;;;2.42;;
13189;SDS011;6660;48.828;9.120;2022-07-17T00:30:07;2.92;;;2.40;;
13189;SDS011;6660;48.828;9.120;2022-07-17T00:32:41;2.80;;;2.60;;
13189;SDS011;6660;48.828;9.120;2022-07-17T00:35:46;2.65;;;2.45;;
13189;SDS011;6660;48.828;9.120;2022-07-17T00:38:15;3.50;;;2.50;;
13189;SDS011;6660;48.828;9.120;2022-07-17T00:40:44;2.90;;;2.70;;
13189;SDS011;6660;48.828;9.120;2022-07-17T00:43:24;2.65;;;2.45;;
13189;SDS011;6660;48.828;9.120;2022-07-17T00:45:54;2.75;;;2.55;;
13189;SDS011;6660;48.828;9.120;2022-07-17T00:48:33;3.97;;;2.60;;
13189;SDS011;6660;48.828;9.120;2022-07-17T00:51:12;2.80;;;2.60;;
13189;SDS011;6660;48.828;9.120;2022-07-17T00:53:40;3.58;;;2.70;;
13189;SDS011;6660;48.828;9.120;2022-07-17T00:56:11;2.97;;;2.47;;
13189;SDS011;6660;48.828;9.120;2022-07-17T00:58:42;2.50;;;2.30;;
13189;SDS011;6660;48.828;9.120;2022-07-17T01:01:11;2.75;;;2.33;;
13189;SDS011;6660;48.828;9.120;2022-07-17T01:03:41;4.07;;;2.58;;
13189;SDS011;6660;48.828;9.120;2022-07-17T01:06:09;2.83;;;2.50;;
13189;SDS011;6660;48.828;9.120;2022-07-17T01:08:36;3.55;;;2.90;;
13189;SDS011;6660;48.828;9.120;2022-07-17T01:11:04;2.83;;;2.50;;
13189;SDS011;6660;48.828;9.120;2022-07-17T01:13:32;4.40;;;2.80;;
13189;SDS011;6660;48.828;9.120;2022-07-17T01:16:02;2.88;;;2.50;;
13189;SDS011;6660;48.828;9.120;2022-07-17T01:18:34;2.72;;;2.40;;
13189;SDS011;6660;48.828;9.120;2022-07-17T01:21:04;4.07;;;3.00;;
13189;SDS011;6660;48.828;9.120;2022-07-17T01:23:37;4.97;;;2.88;;
13189;SDS011;6660;48.828;9.120;2022-07-17T01:26:07;3.88;;;2.72;;
13189;SDS011;6660;48.828;9.120;2022-07-17T01:28:35;3.47;;;2.70;;
13189;SDS011;6660;48.828;9.120;2022-07-17T01:31:11;2.95;;;2.40;;
13189;SDS011;6660;48.828;9.120;2022-07-17T01:33:41;3.55;;;2.80;;
13189;SDS011;6660;48.828;9.120;2022-07-17T01:36:21;3.75;;;2.70;;
13189;SDS011;6660;48.828;9.120;2022-07-17T01:38:51;3.25;;;2.70;;
13189;SDS011;6660;48.828;9.120;2022-07-17T01:41:21;3.55;;;2.85;;
13189;SDS011;6660;48.828;9.120;2022-07-17T01:43:49;2.40;;;2.20;;
13189;SDS011;6660;48.828;9.120;2022-07-17T01:46:19;2.75;;;2.45;;
13189;SDS011;6660;48.828;9.120;2022-07-17T01:48:47;3.08;;;2.80;;
13189;SDS011;6660;48.828;9.120;2022-07-17T01:51:19;4.20;;;3.00;;
13189;SDS011;6660;48.828;9.120;2022-07-17T01:53:52;5.32;;;2.85;;
13189;SDS011;6660;48.828;9.120;2022-07-17T01:56:20;4.40;;;2.90;;
13189;SDS011;6660;48.828;9.120;2022-07-17T01:58:49;3.88;;;2.40;;
13189;SDS011;6660;48.828;9.120;2022-07-17T02:01:16;3.50;;;2.60;;
13189;SDS011;6660;48.828;9.120;2022-07-17T02:03:43;4.72;;;3.08;;
13189;SDS011;6660;48.828;9.120;2022-07-17T02:06:11;4.63;;;3.00;;
13189;SDS011;6660;48.828;9.120;2022-07-17T02:08:48;2.75;;;2.53;;
13189;SDS011;6660;48.828;9.120;2022-07-17T02:11:16;4.15;;;2.97;;
13189;SDS011;6660;48.828;9.120;2022-07-17T02:13:43;4.20;;;2.70;;
13189;SDS011;6660;48.828;9.120;2022-07-17T02:16:11;4.07;;;2.60;;
13189;SDS011;6660;48.828;9.120;2022-07-17T02:18:38;3.78;;;2.88;;
13189;SDS011;6660;48.828;9.120;2022-07-17T02:21:08;3.30;;;3.00;;
13189;SDS011;6660;48.828;9.120;2022-07-17T02:26:25;3.53;;;2.90;;
13189;SDS011;6660;48.828;9.120;2022-07-17T02:29:00;3.08;;;2.60;;
13189;SDS011;6660;48.828;9.120;2022-07-17T02:31:31;4.28;;;2.80;;
13189;SDS011;6660;48.828;9.120;2022-07-17T02:33:59;4.50;;;2.75;;
13189;SDS011;6660;48.828;9.120;2022-07-17T02:36:26;3.10;;;2.80;;
13189;SDS011;6660;48.828;9.120;2022-07-17T02:38:55;2.80;;;2.60;;
13189;SDS011;6660;48.828;9.120;2022-07-17T02:41:25;2.85;;;2.65;;
13189;SDS011;6660;48.828;9.120;2022-07-17T02:43:55;3.65;;;2.85;;
13189;SDS011;6660;48.828;9.120;2022-07-17T02:46:28;3.17;;;2.67;;
13189;SDS011;6660;48.828;9.120;2022-07-17T02:48:55;3.80;;;3.00;;
13189;SDS011;6660;48.828;9.120;2022-07-17T02:51:33;3.13;;;2.83;;
13189;SDS011;6660;48.828;9.120;2022-07-17T02:54:14;3.70;;;2.80;;
13189;SDS011;6660;48.828;9.120;2022-07-17T02:56:47;4.30;;;2.65;;
13189;SDS011;6660;48.828;9.120;2022-07-17T02:59:29;3.97;;;2.80;;
13189;SDS011;6660;48.828;9.120;2022-07-17T03:01:57;4.03;;;3.00;;
13189;SDS011;6660;48.828;9.120;2022-07-17T03:04:33;2.63;;;2.42;;
13189;SDS011;6660;48.828;9.120;2022-07-17T03:07:12;3.70;;;2.55;;
13189;SDS011;6660;48.828;9.120;2022-07-17T03:09:40;3.05;;;2.75;;
13189;SDS011;6660;48.828;9.120;2022-07-17T03:18:19;4.07;;;2.92;;
13189;SDS011;6660;48.828;9.120;2022-07-17T03:21:11;3.00;;;2.70;;
13189;SDS011;6660;48.828;9.120;2022-07-17T03:23:42;3.50;;;2.70;;
13189;SDS011;6660;48.828;9.120;2022-07-17T03:26:26;3.75;;;3.00;;
13189;SDS011;6660;48.828;9.120;2022-07-17T03:28:55;3.40;;;3.08;;
13189;SDS011;6660;48.828;9.120;2022-07-17T03:31:22;3.13;;;2.80;;
13189;SDS011;6660;48.828;9.120;2022-07-17T03:34:04;3.03;;;2.78;;
13189;SDS011;6660;48.828;9.120;2022-07-17T03:36:35;3.72;;;2.75;;
13189;SDS011;6660;48.828;9.120;2022-07-17T03:39:02;4.22;;;2.72;;
13189;SDS011;6660;48.828;9.120;2022-07-17T03:41:30;3.45;;;3.00;;
13189;SDS011;6660;48.828;9.120;2022-07-17T03:43:57;2.70;;;2.50;;
13189;SDS011;6660;48.828;9.120;2022-07-17T03:46:24;2.85;;;2.65;;
13189;SDS011;6660;48.828;9.120;2022-07-17T03:48:52;4.68;;;2.85;;
13189;SDS011;6660;48.828;9.120;2022-07-17T03:51:33;3.38;;;3.08;;
13189;SDS011;6660;48.828;9.120;2022-07-17T03:54:02;2.92;;;2.63;;
13189;SDS011;6660;48.828;9.120;2022-07-17T03:56:30;3.50;;;2.65;;
13189;SDS011;6660;48.828;9.120;2022-07-17T03:58:57;3.10;;;2.72;;
13189;SDS011;6660;48.828;9.120;2022-07-17T04:01:27;2.53;;;2.30;;
13189;SDS011;6660;48.828;9.120;2022-07-17T04:04:08;3.50;;;2.70;;
13189;SDS011;6660;48.828;9.120;2022-07-17T04:07:35;3.53;;;2.53;;
13189;SDS011;6660;48.828;9.120;2022-07-17T04:10:19;3.10;;;2.80;;
13189;SDS011;6660;48.828;9.120;2022-07-17T04:12:48;3.05;;;2.33;;
13189;SDS011;6660;48.828;9.120;2022-07-17T04:15:15;3.58;;;2.65;;
13189;SDS011;6660;48.828;9.120;2022-07-17T04:18:02;2.65;;;2.45;;
13189;SDS011;6660;48.828;9.120;2022-07-17T04:20:31;3.20;;;2.90;;
13189;SDS011;6660;48.828;9.120;2022-07-17T04:23:00;3.15;;;2.88;;
13189;SDS011;6660;48.828;9.120;2022-07-17T04:25:28;2.75;;;2.55;;
13189;SDS011;6660;48.828;9.120;2022-07-17T04:27:55;2.50;;;2.30;;
13189;SDS011;6660;48.828;9.120;2022-07-17T04:30:24;2.88;;;2.45;;
13189;SDS011;6660;48.828;9.120;2022-07-17T04:32:54;2.95;;;2.75;;
13189;SDS011;6660;48.828;9.120;2022-07-17T04:35:22;2.63;;;2.42;;
13189;SDS011;6660;48.828;9.120;2022-07-17T04:37:49;2.83;;;2.58;;
13189;SDS011;6660;48.828;9.120;2022-07-17T04:40:18;2.55;;;2.30;;
13189;SDS011;6660;48.828;9.120;2022-07-17T04:42:46;3.00;;;2.70;;
13189;SDS011;6660;48.828;9.120;2022-07-17T04:45:13;2.97;;;2.78;;
13189;SDS011;6660;48.828;9.120;2022-07-17T04:47:41;3.42;;;2.55;;
13189;SDS011;6660;48.828;9.120;2022-07-17T04:50:08;2.97;;;2.67;;
13189;SDS011;6660;48.828;9.120;2022-07-17T04:52:38;3.10;;;2.80;;
13189;SDS011;6660;48.828;9.120;2022-07-17T04:55:07;2.83;;;2.63;;
13189;SDS011;6660;48.828;9.120;2022-07-17T04:57:45;3.38;;;2.72;;
13189;SDS011;6660;48.828;9.120;2022-07-17T05:00:26;3.47;;;2.70;;
13189;SDS011;6660;48.828;9.120;2022-07-17T05:02:53;2.80;;;2.60;;
13189;SDS011;6660;48.828;9.120;2022-07-17T05:05:21;3.00;;;2.63;;
13189;SDS011;6660;48.828;9.120;2022-07-17T05:07:50;3.35;;;2.63;;
13189;SDS011;6660;48.828;9.120;2022-07-17T05:10:20;2.78;;;2.58;;
13189;SDS011;6660;48.828;9.120;2022-07-17T05:13:01;2.80;;;2.58;;
13189;SDS011;6660;48.828;9.120;2022-07-17T05:15:28;2.72;;;2.47;;
13189;SDS011;6660;48.828;9.120;2022-07-17T05:17:57;2.90;;;2.70;;
13189;SDS011;6660;48.828;9.120;2022-07-17T05:20:25;3.53;;;2.70;;
13189;SDS011;6660;48.828;9.120;2022-07-17T05:23:04;2.83;;;2.47;;
13189;SDS011;6660;48.828;9.120;2022-07-17T05:25:45;3.35;;;2.78;;
13189;SDS011;6660;48.828;9.120;2022-07-17T05:28:16;2.63;;;2.40;;
13189;SDS011;6660;48.828;9.120;2022-07-17T05:30:45;2.70;;;2.50;;
13189;SDS011;6660;48.828;9.120;2022-07-17T05:33:13;3.00;;;2.70;;
13189;SDS011;6660;48.828;9.120;2022-07-17T05:35:40;4.10;;;2.50;;
13189;SDS011;6660;48.828;9.120;2022-07-17T05:38:09;2.90;;;2.60;;
13189;SDS011;6660;48.828;9.120;2022-07-17T05:40:50;2.78;;;2.58;;
13189;SDS011;6660;48.828;9.120;2022-07-17T05:43:31;3.00;;;2.78;;
13189;SDS011;6660;48.828;9.120;2022-07-17T05:45:58;2.53;;;2.33;;
13189;SDS011;6660;48.828;9.120;2022-07-17T05:48:26;3.80;;;2.85;;
13189;SDS011;6660;48.828;9.120;2022-07-17T05:50:55;2.70;;;2.50;;
13189;SDS011;6660;48.828;9.120;2022-07-17T05:53:22;3.00;;;2.63;;
13189;SDS011;6660;48.828;9.120;2022-07-17T05:59:08;2.60;;;2.40;;
13189;SDS011;6660;48.828;9.120;2022-07-17T06:01:38;3.20;;;2.45;;
13189;SDS011;6660;48.828;9.120;2022-07-17T06:04:07;3.05;;;2.40;;
13189;SDS011;6660;48.828;9.120;2022-07-17T06:06:35;2.88;;;2.40;;
13189;SDS011;6660;48.828;9.120;2022-07-17T06:09:05;2.50;;;2.30;;
13189;SDS011;6660;48.828;9.120;2022-07-17T06:11:35;2.70;;;2.50;;
13189;SDS011;6660;48.828;9.120;2022-07-17T06:14:05;4.10;;;2.63;;
13189;SDS011;6660;48.828;9.120;2022-07-17T06:16:34;3.40;;;2.38;;
13189;SDS011;6660;48.828;9.120;2022-07-17T06:19:01;2.78;;;2.58;;
13189;SDS011;6660;48.828;9.120;2022-07-17T06:21:29;2.60;;;2.40;;
13189;SDS011;6660;48.828;9.120;2022-07-17T06:24:02;2.72;;;2.45;;
13189;SDS011;6660;48.828;9.120;2022-07-17T06:26:32;3.45;;;2.50;;
13189;SDS011;6660;48.828;9.120;2022-07-17T06:29:05;2.70;;;2.50;;
13189;SDS011;6660;48.828;9.120;2022-07-17T06:37:07;2.60;;;2.40;;
13189;SDS011;6660;48.828;9.120;2022-07-17T06:39:37;2.97;;;2.47;;
13189;SDS011;6660;48.828;9.120;2022-07-17T06:45:13;3.65;;;2.75;;
13189;SDS011;6660;48.828;9.120;2022-07-17T06:48:00;7.40;;;3.20;;
13189;SDS011;6660;48.828;9.120;2022-07-17T06:50:31;10.00;;;3.42;;
13189;SDS011;6660;48.828;9.120;2022-07-17T06:53:17;7.85;;;3.22;;
13189;SDS011;6660;48.828;9.120;2022-07-17T06:58:16;8.93;;;3.50;;
13189;SDS011;6660;48.828;9.120;2022-07-17T07:00:43;7.57;;;3.20;;
13189;SDS011;6660;48.828;9.120;2022-07-17T07:03:12;5.63;;;3.28;;
13189;SDS011;6660;48.828;9.120;2022-07-17T07:05:40;5.07;;;2.85;;
13189;SDS011;6660;48.828;9.120;2022-07-17T07:08:10;6.20;;;2.70;;
13189;SDS011;6660;48.828;9.120;2022-07-17T07:10:39;6.72;;;3.13;;
13189;SDS011;6660;48.828;9.120;2022-07-17T07:13:09;5.30;;;3.00;;
13189;SDS011;6660;48.828;9.120;2022-07-17T07:15:37;6.35;;;2.92;;
13189;SDS011;6660;48.828;9.120;2022-07-17T07:18:07;9.05;;;3.10;;
13189;SDS011;6660;48.828;9.120;2022-07-17T07:20:38;4.95;;;2.75;;
13189;SDS011;6660;48.828;9.120;2022-07-17T07:23:07;4.45;;;2.90;;
13189;SDS011;6660;48.828;9.120;2022-07-17T07:25:35;5.25;;;2.75;;
13189;SDS011;6660;48.828;9.120;2022-07-17T07:28:04;4.68;;;2.97;;
13189;SDS011;6660;48.828;9.120;2022-07-17T07:30:35;5.05;;;2.83;;
13189;SDS011;6660;48.828;9.120;2022-07-17T07:33:04;5.25;;;2.88;;
13189;SDS011;6660;48.828;9.120;2022-07-17T07:35:33;6.00;;;2.75;;
13189;SDS011;6660;48.828;9.120;2022-07-17T07:38:00;4.20;;;2.67;;
13189;SDS011;6660;48.828;9.120;2022-07-17T07:40:28;5.95;;;2.90;;
13189;SDS011;6660;48.828;9.120;2022-07-17T07:42:56;4.68;;;2.50;;
13189;SDS011;6660;48.828;9.120;2022-07-17T07:45:25;4.30;;;2.90;;
13189;SDS011;6660;48.828;9.120;2022-07-17T07:47:52;4.75;;;2.65;;
13189;SDS011;6660;48.828;9.120;2022-07-17T07:50:23;6.53;;;2.70;;
13189;SDS011;6660;48.828;9.120;2022-07-17T07:52:51;3.33;;;2.50;;
13189;SDS011;6660;48.828;9.120;2022-07-17T07:55:18;3.72;;;2.58;;
13189;SDS011;6660;48.828;9.120;2022-07-17T07:57:47;2.50;;;2.30;;
13189;SDS011;6660;48.828;9.120;2022-07-17T08:00:22;4.60;;;2.67;;
13189;SDS011;6660;48.828;9.120;2022-07-17T08:02:53;4.45;;;2.38;;
13189;SDS011;6660;48.828;9.120;2022-07-17T08:05:27;5.25;;;2.38;;
13189;SDS011;6660;48.828;9.120;2022-07-17T08:07:56;3.67;;;2.67;;
13189;SDS011;6660;48.828;9.120;2022-07-17T08:10:23;3.75;;;2.50;;
13189;SDS011;6660;48.828;9.120;2022-07-17T08:12:52;5.60;;;2.53;;
13189;SDS011;6660;48.828;9.120;2022-07-17T08:15:20;3.42;;;2.50;;
13189;SDS011;6660;48.828;9.120;2022-07-17T08:17:48;3.10;;;2.30;;
13189;SDS011;6660;48.828;9.120;2022-07-17T08:20:20;2.40;;;2.20;;
13189;SDS011;6660;48.828;9.120;2022-07-17T08:22:52;4.47;;;2.33;;
13189;SDS011;6660;48.828;9.120;2022-07-17T08:25:19;2.40;;;2.20;;
13189;SDS011;6660;48.828;9.120;2022-07-17T08:27:47;2.42;;;2.22;;
13189;SDS011;6660;48.828;9.120;2022-07-17T08:30:14;2.17;;;1.98;;
13189;SDS011;6660;48.828;9.120;2022-07-17T08:32:42;3.38;;;2.50;;
13189;SDS011;6660;48.828;9.120;2022-07-17T08:35:12;3.15;;;2.50;;
13189;SDS011;6660;48.828;9.120;2022-07-17T08:37:51;2.40;;;2.20;;
13189;SDS011;6660;48.828;9.120;2022-07-17T08:40:22;3.28;;;2.42;;
13189;SDS011;6660;48.828;9.120;2022-07-17T08:42:51;2.67;;;2.47;;
13189;SDS011;6660;48.828;9.120;2022-07-17T08:45:21;2.85;;;2.10;;
13189;SDS011;6660;48.828;9.120;2022-07-17T08:50:49;2.65;;;2.40;;
13189;SDS011;6660;48.828;9.120;2022-07-17T09:43:47;2.03;;;1.90;;
13189;SDS011;6660;48.828;9.120;2022-07-17T09:46:35;1.85;;;1.75;;
13189;SDS011;6660;48.828;9.120;2022-07-17T09:49:19;3.03;;;2.00;;
13189;SDS011;6660;48.828;9.120;2022-07-17T09:52:08;2.33;;;2.03;;
13189;SDS011;6660;48.828;9.120;2022-07-17T10:00:00;1.98;;;1.80;;
13189;SDS011;6660;48.828;9.120;2022-07-17T10:02:44;2.42;;;2.10;;
13189;SDS011;6660;48.828;9.120;2022-07-17T10:08:27;2.90;;;1.90;;
13189;SDS011;6660;48.828;9.120;2022-07-17T10:14:29;2.00;;;1.80;;
13189;SDS011;6660;48.828;9.120;2022-07-17T11:40:55;2.60;;;1.80;;
13189;SDS011;6660;48.828;9.120;2022-07-17T11:43:45;1.75;;;1.65;;
13189;SDS011;6660;48.828;9.120;2022-07-17T11:46:15;1.90;;;1.75;;
13189;SDS011;6660;48.828;9.120;2022-07-17T11:49:22;2.00;;;1.80;;
13189;SDS011;6660;48.828;9.120;2022-07-17T11:51:54;1.67;;;1.58;;
13189;SDS011;6660;48.828;9.120;2022-07-17T12:09:30;2.25;;;1.70;;
13189;SDS011;6660;48.828;9.120;2022-07-17T12:18:20;1.67;;;1.58;;
13189;SDS011;6660;48.828;9.120;2022-07-17T13:18:24;6.15;;;2.50;;
13189;SDS011;6660;48.828;9.120;2022-07-17T13:27:17;6.85;;;3.15;;
13189;SDS011;6660;48.828;9.120;2022-07-17T13:30:13;6.13;;;3.83;;
13189;SDS011;6660;48.828;9.120;2022-07-17T13:33:29;7.57;;;3.75;;
13189;SDS011;6660;48.828;9.120;2022-07-17T13:36:16;6.57;;;3.17;;
13189;SDS011;6660;48.828;9.120;2022-07-17T13:39:00;3.63;;;2.55;;
13189;SDS011;6660;48.828;9.120;2022-07-17T13:41:44;3.53;;;2.63;;
13189;SDS011;6660;48.828;9.120;2022-07-17T13:53:48;3.08;;;2.38;;
13189;SDS011;6660;48.828;9.120;2022-07-17T13:57:40;3.78;;;2.30;;
13189;SDS011;6660;48.828;9.120;2022-07-17T13:59:48;2.50;;;2.22;;
13189;SDS011;6660;48.828;9.120;2022-07-17T14:02:40;2.45;;;2.00;;
13189;SDS011;6660;48.828;9.120;2022-07-17T14:19:31;2.13;;;1.90;;
13189;SDS011;6660;48.828;9.120;2022-07-17T14:37:57;1.88;;;1.73;;
13189;SDS011;6660;48.828;9.120;2022-07-17T14:40:47;2.10;;;1.67;;
13189;SDS011;6660;48.828;9.120;2022-07-17T14:44:08;1.90;;;1.80;;
13189;SDS011;6660;48.828;9.120;2022-07-17T14:46:30;2.33;;;1.60;;
13189;SDS011;6660;48.828;9.120;2022-07-17T14:49:28;1.85;;;1.75;;
13189;SDS011;6660;48.828;9.120;2022-07-17T15:25:20;2.00;;;1.80;;
13189;SDS011;6660;48.828;9.120;2022-07-17T15:31:18;1.73;;;1.63;;
13189;SDS011;6660;48.828;9.120;2022-07-17T15:34:45;1.60;;;1.50;;
13189;SDS011;6660;48.828;9.120;2022-07-17T18:09:50;1.63;;;1.52;;
13189;SDS011;6660;48.828;9.120;2022-07-17T18:12:28;2.20;;;2.00;;
13189;SDS011;6660;48.828;9.120;2022-07-17T18:14:55;2.88;;;2.10;;
13189;SDS011;6660;48.828;9.120;2022-07-17T18:17:24;2.30;;;2.10;;
13189;SDS011;6660;48.828;9.120;2022-07-17T18:19:51;2.28;;;2.08;;
13189;SDS011;6660;48.828;9.120;2022-07-17T18:22:19;2.03;;;1.90;;
13189;SDS011;6660;48.828;9.120;2022-07-17T18:24:48;1.92;;;1.80;;
13189;SDS011;6660;48.828;9.120;2022-07-17T18:27:16;1.65;;;1.55;;
13189;SDS011;6660;48.828;9.120;2022-07-17T18:29:54;1.90;;;1.67;;
13189;SDS011;6660;48.828;9.120;2022-07-17T18:32:35;2.88;;;1.70;;
13189;SDS011;6660;48.828;9.120;2022-07-17T18:38:31;3.25;;;1.70;;
13189;SDS011;6660;48.828;9.120;2022-07-17T18:44:01;1.83;;;1.50;;
13189;SDS011;6660;48.828;9.120;2022-07-17T20:07:59;2.53;;;1.73;;
13189;SDS011;6660;48.828;9.120;2022-07-17T20:14:02;3.22;;;1.95;;
13189;SDS011;6660;48.828;9.120;2022-07-17T20:19:32;1.77;;;1.67;;
13189;SDS011;6660;48.828;9.120;2022-07-17T20:22:16;1.90;;;1.80;;
13189;SDS011;6660;48.828;9.120;2022-07-17T20:27:54;2.63;;;1.80;;
13189;SDS011;6660;48.828;9.120;2022-07-17T20:31:11;4.57;;;1.77;;
13189;SDS011;6660;48.828;9.120;2022-07-17T20:33:51;3.70;;;1.90;;
13189;SDS011;6660;48.828;9.120;2022-07-17T20:36:36;3.25;;;1.67;;
13189;SDS011;6660;48.828;9.120;2022-07-17T20:39:13;4.80;;;2.25;;
13189;SDS011;6660;48.828;9.120;2022-07-17T20:41:57;4.20;;;1.90;;
13189;SDS011;6660;48.828;9.120;2022-07-17T20:44:31;3.53;;;1.95;;
13189;SDS011;6660;48.828;9.120;2022-07-17T20:47:02;4.00;;;2.08;;
13189;SDS011;6660;48.828;9.120;2022-07-17T20:49:30;3.60;;;2.10;;
13189;SDS011;6660;48.828;9.120;2022-07-17T20:52:11;2.38;;;1.92;;
13189;SDS011;6660;48.828;9.120;2022-07-17T20:54:55;4.10;;;2.00;;
13189;SDS011;6660;48.828;9.120;2022-07-17T20:57:41;2.40;;;2.00;;
13189;SDS011;6660;48.828;9.120;2022-07-17T21:00:32;2.88;;;1.92;;
13189;SDS011;6660;48.828;9.120;2022-07-17T21:06:16;2.85;;;2.00;;
13189;SDS011;6660;48.828;9.120;2022-07-17T21:08:48;2.85;;;1.80;;
13189;SDS011;6660;48.828;9.120;2022-07-17T21:11:21;1.95;;;1.60;;
13189;SDS011;6660;48.828;9.120;2022-07-17T21:13:52;2.67;;;1.80;;
13189;SDS011;6660;48.828;9.120;2022-07-17T21:16:30;3.35;;;2.08;;
13189;SDS011;6660;48.828;9.120;2022-07-17T21:19:01;3.80;;;1.92;;
13189;SDS011;6660;48.828;9.120;2022-07-17T21:21:30;2.53;;;2.33;;
13189;SDS011;6660;48.828;9.120;2022-07-17T21:24:02;2.80;;;1.92;;
13189;SDS011;6660;48.828;9.120;2022-07-17T21:26:30;2.05;;;1.80;;
13189;SDS011;6660;48.828;9.120;2022-07-17T21:29:04;2.42;;;2.05;;
13189;SDS011;6660;48.828;9.120;2022-07-17T21:31:32;2.45;;;2.10;;
13189;SDS011;6660;48.828;9.120;2022-07-17T21:34:02;2.25;;;1.88;;
13189;SDS011;6660;48.828;9.120;2022-07-17T21:39:09;2.67;;;1.67;;
13189;SDS011;6660;48.828;9.120;2022-07-17T21:41:37;3.13;;;1.98;;
13189;SDS011;6660;48.828;9.120;2022-07-17T21:44:18;1.80;;;1.60;;
13189;SDS011;6660;48.828;9.120;2022-07-17T21:46:47;2.25;;;1.90;;
13189;SDS011;6660;48.828;9.120;2022-07-17T21:49:21;1.83;;;1.73;;
13189;SDS011;6660;48.828;9.120;2022-07-17T21:51:51;2.58;;;1.98;;
13189;SDS011;6660;48.828;9.120;2022-07-17T21:54:24;2.95;;;2.00;;
13189;SDS011;6660;48.828;9.120;2022-07-17T21:56:56;1.60;;;1.50;;
13189;SDS011;6660;48.828;9.120;2022-07-17T22:05:24;1.85;;;1.70;;
13189;SDS011;6660;48.828;9.120;2022-07-17T22:15:45;1.98;;;1.88;;
13189;SDS011;6660;48.828;9.120;2022-07-17T22:18:35;2.17;;;1.80;;
13189;SDS011;6660;48.828;9.120;2022-07-17T22:21:09;2.38;;;1.85;;
13189;SDS011;6660;48.828;9.120;2022-07-17T22:23:53;2.28;;;2.08;;
13189;SDS011;6660;48.828;9.120;2022-07-17T22:26:36;1.88;;;1.77;;
13189;SDS011;6660;48.828;9.120;2022-07-17T22:29:11;2.35;;;2.00;;
13189;SDS011;6660;48.828;9.120;2022-07-17T22:31:59;1.80;;;1.70;;
13189;SDS011;6660;48.828;9.120;2022-07-17T22:34:40;2.10;;;2.00;;
13189;SDS011;6660;48.828;9.120;2022-07-17T22:37:30;2.22;;;2.03;;
13189;SDS011;6660;48.828;9.120;2022-07-17T22:39:58;2.63;;;1.90;;
13189;SDS011;6660;48.828;9.120;2022-07-17T22:42:28;2.00;;;1.90;;
13189;SDS011;6660;48.828;9.120;2022-07-17T22:45:16;1.80;;;1.70;;
13189;SDS011;6660;48.828;9.120;2022-07-17T22:48:01;2.00;;;1.90;;
13189;SDS011;6660;48.828;9.120;2022-07-17T22:50:34;1.80;;;1.70;;
13189;SDS011;6660;48.828;9.120;2022-07-17T22:53:25;2.35;;;1.90;;
13189;SDS011;6660;48.828;9.120;2022-07-17T22:56:08;1.70;;;1.60;;
13189;SDS011;6660;48.828;9.120;2022-07-17T22:58:56;2.13;;;1.88;;
13189;SDS011;6660;48.828;9.120;2022-07-17T23:01:36;2.15;;;1.95;;
13189;SDS011;6660;48.828;9.120;2022-07-17T23:04:08;2.22;;;2.03;;
13189;SDS011;6660;48.828;9.120;2022-07-17T23:30:16;1.60;;;1.50;;
13189;SDS011;6660;48.828;9.120;2022-07-17T23:32:58;2.22;;;1.77;;
13189;SDS011;6660;48.828;9.120;2022-07-17T23:38:53;1.85;;;1.75;;
13189;SDS011;6660;48.828;9.120;2022-07-17T23:41:27;2.83;;;1.98;;
